Portada
METAR-TAF:

METAR-TAF

Aeroports :

Aeroport de Port Bouet

Abidjan, Costa d'Ivori

latitud: 05-15N, longitud: 003-56W, altitud: 7 m

Observació

L'informe es va fer fa 32 minuts, a les 07:00 UTC
Vent 4 kt del Oest/Nord-Oest
Temperatura 28°C
Humitat 84%
Pressió 1010 hPa
Visibilitat: 7000 m
Escasses núvols a una alçada de 1200 ft

METAR: DIAP 220700Z 29004KT 7000 FEW012 28/25 Q1010 NOSIG

Hora: 07:32 (07:32 UTC)

Pronòstic

L'informe es va fer fa 2 hores i 32 minuts, a les 05:00 UTC
Pronòstic vàlid del 22 a les 06 UTC al 23 a les 12 UTC
Vent 8 kt del Sud-Oest
Visibilitat: 8000 m
Núvols disperses a una alçada de 1200 ft
Núvols disperses a una alçada de 4000 ft
Probabilitat 30% :
Temporalment
l' 22 a les 09 UTC al 22 a les 12 UTC
Visibilitat: 4000 m
Cel ennuvolat a una alçada de 1000 ft
Cel ennuvolat a una alçada de 3000 ft
pluja

TAF: DIAP 220500Z 2206/2312 23008KT 8000 SCT012 SCT040 PROB30 TEMPO 2209/2212 4000 RA BKN010 BKN030

Observacions i pronòstics meteorològics de més de 4000 aeroports (METAR i TAF).

Les estacions disponibles són els punts grocs i vermells al mapa.

Posi el ratolí al punt desitjat per veure el nom de l'estació.

Feu clic per veure les observacions i els pronòstics meteorològics.

Per canviar el mapa: feu clic els botons verds amb una creu de color negre per apropar; al botó verd amb un guió per allunyar la imatge; o en les fletxes verdes per a mapes adjacents.


METAR-TAF: